sensor_id;sensor_type;location;lat;lon;timestamp;temperature;humidity
67586;SHT31;55785;47.946;20.540;2023-03-13T00:01:01;1.20;60.87
67586;SHT31;55785;47.946;20.540;2023-03-13T00:03:27;1.34;60.13
67586;SHT31;55785;47.946;20.540;2023-03-13T00:05:56;1.81;55.07
67586;SHT31;55785;47.946;20.540;2023-03-13T00:08:27;1.89;55.52
67586;SHT31;55785;47.946;20.540;2023-03-13T00:10:53;2.11;52.06
67586;SHT31;55785;47.946;20.540;2023-03-13T00:13:18;2.22;53.36
67586;SHT31;55785;47.946;20.540;2023-03-13T00:15:44;2.29;53.87
67586;SHT31;55785;47.946;20.540;2023-03-13T00:18:09;2.47;50.70
67586;SHT31;55785;47.946;20.540;2023-03-13T00:20:34;2.60;49.79
67586;SHT31;55785;47.946;20.540;2023-03-13T00:23:00;2.61;52.16
67586;SHT31;55785;47.946;20.540;2023-03-13T00:25:25;2.46;54.82
67586;SHT31;55785;47.946;20.540;2023-03-13T00:27:50;2.29;56.47
67586;SHT31;55785;47.946;20.540;2023-03-13T00:30:16;2.22;56.79
67586;SHT31;55785;47.946;20.540;2023-03-13T00:32:43;2.05;58.32
67586;SHT31;55785;47.946;20.540;2023-03-13T00:35:08;1.97;58.92
67586;SHT31;55785;47.946;20.540;2023-03-13T00:37:34;1.92;59.59
67586;SHT31;55785;47.946;20.540;2023-03-13T00:39:59;1.95;58.86
67586;SHT31;55785;47.946;20.540;2023-03-13T00:42:24;1.95;58.68
67586;SHT31;55785;47.946;20.540;2023-03-13T00:44:50;2.19;52.96
67586;SHT31;55785;47.946;20.540;2023-03-13T00:47:15;2.40;51.28
67586;SHT31;55785;47.946;20.540;2023-03-13T00:49:40;2.57;49.74
67586;SHT31;55785;47.946;20.540;2023-03-13T00:52:06;2.71;49.88
67586;SHT31;55785;47.946;20.540;2023-03-13T00:54:31;2.81;49.72
67586;SHT31;55785;47.946;20.540;2023-03-13T00:56:57;2.73;52.48
67586;SHT31;55785;47.946;20.540;2023-03-13T00:59:22;2.60;53.68
67586;SHT31;55785;47.946;20.540;2023-03-13T01:01:47;2.50;54.00
67586;SHT31;55785;47.946;20.540;2023-03-13T01:04:13;2.41;54.26
67586;SHT31;55785;47.946;20.540;2023-03-13T01:06:40;2.39;54.28
67586;SHT31;55785;47.946;20.540;2023-03-13T01:09:06;2.34;54.79
67586;SHT31;55785;47.946;20.540;2023-03-13T01:11:35;2.32;56.01
67586;SHT31;55785;47.946;20.540;2023-03-13T01:14:03;2.18;57.37
67586;SHT31;55785;47.946;20.540;2023-03-13T01:16:31;2.12;57.29
67586;SHT31;55785;47.946;20.540;2023-03-13T01:19:00;2.02;58.28
67586;SHT31;55785;47.946;20.540;2023-03-13T01:21:26;1.89;58.72
67586;SHT31;55785;47.946;20.540;2023-03-13T01:23:53;1.75;59.75
67586;SHT31;55785;47.946;20.540;2023-03-13T01:26:19;1.68;61.13
67586;SHT31;55785;47.946;20.540;2023-03-13T01:28:45;1.60;62.79
67586;SHT31;55785;47.946;20.540;2023-03-13T01:31:15;1.50;63.90
67586;SHT31;55785;47.946;20.540;2023-03-13T01:33:41;1.39;63.94
67586;SHT31;55785;47.946;20.540;2023-03-13T01:36:07;1.33;64.18
67586;SHT31;55785;47.946;20.540;2023-03-13T01:38:32;1.15;65.01
67586;SHT31;55785;47.946;20.540;2023-03-13T01:40:58;1.07;65.17
67586;SHT31;55785;47.946;20.540;2023-03-13T01:43:26;1.03;65.66
67586;SHT31;55785;47.946;20.540;2023-03-13T01:48:42;1.02;65.80
67586;SHT31;55785;47.946;20.540;2023-03-13T01:51:16;1.05;66.12
67586;SHT31;55785;47.946;20.540;2023-03-13T01:53:44;1.03;66.51
67586;SHT31;55785;47.946;20.540;2023-03-13T01:56:19;0.95;67.01
67586;SHT31;55785;47.946;20.540;2023-03-13T01:58:48;0.91;65.74
67586;SHT31;55785;47.946;20.540;2023-03-13T02:01:15;0.85;66.01
67586;SHT31;55785;47.946;20.540;2023-03-13T02:03:41;0.84;67.31
67586;SHT31;55785;47.946;20.540;2023-03-13T02:06:07;0.78;67.49
67586;SHT31;55785;47.946;20.540;2023-03-13T02:08:44;0.78;67.37
67586;SHT31;55785;47.946;20.540;2023-03-13T02:11:28;0.84;66.66
67586;SHT31;55785;47.946;20.540;2023-03-13T02:13:55;0.82;66.51
67586;SHT31;55785;47.946;20.540;2023-03-13T02:16:22;0.85;66.40
67586;SHT31;55785;47.946;20.540;2023-03-13T02:18:48;0.82;66.43
67586;SHT31;55785;47.946;20.540;2023-03-13T02:21:22;0.78;66.07
67586;SHT31;55785;47.946;20.540;2023-03-13T02:26:45;0.75;67.08
67586;SHT31;55785;47.946;20.540;2023-03-13T02:29:10;0.65;67.41
67586;SHT31;55785;47.946;20.540;2023-03-13T02:31:36;0.69;68.52
67586;SHT31;55785;47.946;20.540;2023-03-13T02:34:02;0.64;67.31
67586;SHT31;55785;47.946;20.540;2023-03-13T02:36:29;0.74;66.21
67586;SHT31;55785;47.946;20.540;2023-03-13T02:38:58;0.89;64.52
67586;SHT31;55785;47.946;20.540;2023-03-13T02:41:26;0.99;63.99
67586;SHT31;55785;47.946;20.540;2023-03-13T02:43:52;1.05;64.82
67586;SHT31;55785;47.946;20.540;2023-03-13T02:46:19;1.09;65.29
67586;SHT31;55785;47.946;20.540;2023-03-13T02:48:50;1.06;64.69
67586;SHT31;55785;47.946;20.540;2023-03-13T02:51:39;1.13;65.03
67586;SHT31;55785;47.946;20.540;2023-03-13T02:54:09;1.09;65.45
67586;SHT31;55785;47.946;20.540;2023-03-13T02:56:37;1.03;66.12
67586;SHT31;55785;47.946;20.540;2023-03-13T02:59:04;1.06;65.64
67586;SHT31;55785;47.946;20.540;2023-03-13T03:01:29;1.07;65.06
67586;SHT31;55785;47.946;20.540;2023-03-13T03:03:54;1.05;64.98
67586;SHT31;55785;47.946;20.540;2023-03-13T03:06:20;1.03;65.82
67586;SHT31;55785;47.946;20.540;2023-03-13T03:08:45;0.96;65.60
67586;SHT31;55785;47.946;20.540;2023-03-13T03:11:11;0.96;65.84
67586;SHT31;55785;47.946;20.540;2023-03-13T03:13:36;0.91;65.88
67586;SHT31;55785;47.946;20.540;2023-03-13T03:16:10;0.88;66.26
67586;SHT31;55785;47.946;20.540;2023-03-13T03:18:36;0.93;66.21
67586;SHT31;55785;47.946;20.540;2023-03-13T03:21:02;0.88;66.13
67586;SHT31;55785;47.946;20.540;2023-03-13T03:23:27;0.82;66.71
67586;SHT31;55785;47.946;20.540;2023-03-13T03:25:53;0.85;67.23
67586;SHT31;55785;47.946;20.540;2023-03-13T03:28:18;0.97;66.93
67586;SHT31;55785;47.946;20.540;2023-03-13T03:30:43;1.16;67.37
67586;SHT31;55785;47.946;20.540;2023-03-13T03:33:08;1.16;67.17
67586;SHT31;55785;47.946;20.540;2023-03-13T03:35:34;1.29;65.59
67586;SHT31;55785;47.946;20.540;2023-03-13T03:37:59;1.34;66.30
67586;SHT31;55785;47.946;20.540;2023-03-13T03:40:25;1.36;64.80
67586;SHT31;55785;47.946;20.540;2023-03-13T03:42:50;1.32;64.42
67586;SHT31;55785;47.946;20.540;2023-03-13T03:45:15;1.47;65.80
67586;SHT31;55785;47.946;20.540;2023-03-13T03:47:41;1.51;66.79
67586;SHT31;55785;47.946;20.540;2023-03-13T03:50:07;1.58;65.24
67586;SHT31;55785;47.946;20.540;2023-03-13T03:52:32;1.64;66.52
67586;SHT31;55785;47.946;20.540;2023-03-13T03:54:57;1.67;67.90
67586;SHT31;55785;47.946;20.540;2023-03-13T03:57:23;1.61;67.83
67586;SHT31;55785;47.946;20.540;2023-03-13T03:59:48;1.63;66.73
67586;SHT31;55785;47.946;20.540;2023-03-13T04:02:14;1.61;66.96
67586;SHT31;55785;47.946;20.540;2023-03-13T04:04:39;1.65;67.79
67586;SHT31;55785;47.946;20.540;2023-03-13T04:07:04;1.70;70.03
67586;SHT31;55785;47.946;20.540;2023-03-13T04:09:30;1.65;69.25
67586;SHT31;55785;47.946;20.540;2023-03-13T04:11:55;1.71;67.82
67586;SHT31;55785;47.946;20.540;2023-03-13T04:14:20;1.74;67.32
67586;SHT31;55785;47.946;20.540;2023-03-13T04:16:46;1.68;64.57
67586;SHT31;55785;47.946;20.540;2023-03-13T04:19:11;1.68;64.08
67586;SHT31;55785;47.946;20.540;2023-03-13T04:21:36;1.68;65.69
67586;SHT31;55785;47.946;20.540;2023-03-13T04:24:02;1.67;64.73
67586;SHT31;55785;47.946;20.540;2023-03-13T04:26:27;1.70;65.92
67586;SHT31;55785;47.946;20.540;2023-03-13T04:28:52;1.78;66.23
67586;SHT31;55785;47.946;20.540;2023-03-13T04:31:18;1.71;67.61
67586;SHT31;55785;47.946;20.540;2023-03-13T04:33:43;1.81;70.78
67586;SHT31;55785;47.946;20.540;2023-03-13T04:36:09;1.86;69.03
67586;SHT31;55785;47.946;20.540;2023-03-13T04:38:34;1.86;67.70
67586;SHT31;55785;47.946;20.540;2023-03-13T04:40:59;1.85;68.87
67586;SHT31;55785;47.946;20.540;2023-03-13T04:43:25;1.86;67.96
67586;SHT31;55785;47.946;20.540;2023-03-13T04:45:53;1.89;66.96
67586;SHT31;55785;47.946;20.540;2023-03-13T04:48:18;1.94;68.47
67586;SHT31;55785;47.946;20.540;2023-03-13T04:50:43;2.03;66.78
67586;SHT31;55785;47.946;20.540;2023-03-13T04:53:09;2.06;67.25
67586;SHT31;55785;47.946;20.540;2023-03-13T04:55:34;2.13;67.75
67586;SHT31;55785;47.946;20.540;2023-03-13T04:57:59;2.16;66.24
67586;SHT31;55785;47.946;20.540;2023-03-13T05:00:25;2.22;65.10
67586;SHT31;55785;47.946;20.540;2023-03-13T05:02:50;2.28;65.22
67586;SHT31;55785;47.946;20.540;2023-03-13T05:05:15;2.36;65.42
67586;SHT31;55785;47.946;20.540;2023-03-13T05:07:41;2.41;65.51
67586;SHT31;55785;47.946;20.540;2023-03-13T05:10:06;2.50;65.37
67586;SHT31;55785;47.946;20.540;2023-03-13T05:12:32;2.54;65.72
67586;SHT31;55785;47.946;20.540;2023-03-13T05:14:57;2.67;66.27
67586;SHT31;55785;47.946;20.540;2023-03-13T05:17:22;2.71;65.23
67586;SHT31;55785;47.946;20.540;2023-03-13T05:19:48;2.61;66.45
67586;SHT31;55785;47.946;20.540;2023-03-13T05:22:13;2.65;65.69
67586;SHT31;55785;47.946;20.540;2023-03-13T05:24:38;2.73;66.70
67586;SHT31;55785;47.946;20.540;2023-03-13T05:27:04;2.74;66.38
67586;SHT31;55785;47.946;20.540;2023-03-13T05:29:29;2.76;66.45
67586;SHT31;55785;47.946;20.540;2023-03-13T05:31:54;2.80;69.50
67586;SHT31;55785;47.946;20.540;2023-03-13T05:34:20;2.78;69.89
67586;SHT31;55785;47.946;20.540;2023-03-13T05:36:45;2.84;70.76
67586;SHT31;55785;47.946;20.540;2023-03-13T05:39:10;2.87;68.72
67586;SHT31;55785;47.946;20.540;2023-03-13T05:41:36;2.85;67.12
67586;SHT31;55785;47.946;20.540;2023-03-13T05:44:01;2.78;65.92
67586;SHT31;55785;47.946;20.540;2023-03-13T05:46:26;2.83;66.42
67586;SHT31;55785;47.946;20.540;2023-03-13T05:48:52;2.90;66.17
67586;SHT31;55785;47.946;20.540;2023-03-13T05:51:17;2.83;70.35
67586;SHT31;55785;47.946;20.540;2023-03-13T05:53:43;2.65;71.17
67586;SHT31;55785;47.946;20.540;2023-03-13T05:56:08;2.67;71.72
67586;SHT31;55785;47.946;20.540;2023-03-13T05:58:34;2.83;69.77
67586;SHT31;55785;47.946;20.540;2023-03-13T06:01:05;2.84;68.58
67586;SHT31;55785;47.946;20.540;2023-03-13T06:03:31;2.83;65.04
67586;SHT31;55785;47.946;20.540;2023-03-13T06:05:57;2.81;65.89
67586;SHT31;55785;47.946;20.540;2023-03-13T06:08:22;2.91;67.04
67586;SHT31;55785;47.946;20.540;2023-03-13T06:10:48;2.98;66.69
67586;SHT31;55785;47.946;20.540;2023-03-13T06:13:13;2.97;65.75
67586;SHT31;55785;47.946;20.540;2023-03-13T06:15:38;3.05;65.27
67586;SHT31;55785;47.946;20.540;2023-03-13T06:18:04;3.11;64.66
67586;SHT31;55785;47.946;20.540;2023-03-13T06:20:29;3.13;64.44
67586;SHT31;55785;47.946;20.540;2023-03-13T06:22:54;3.22;64.30
67586;SHT31;55785;47.946;20.540;2023-03-13T06:25:20;3.32;62.79
67586;SHT31;55785;47.946;20.540;2023-03-13T06:27:45;3.29;63.46
67586;SHT31;55785;47.946;20.540;2023-03-13T06:30:11;3.35;64.07
67586;SHT31;55785;47.946;20.540;2023-03-13T06:32:36;3.46;63.03
67586;SHT31;55785;47.946;20.540;2023-03-13T06:35:02;3.46;62.91
67586;SHT31;55785;47.946;20.540;2023-03-13T06:37:27;3.52;63.29
67586;SHT31;55785;47.946;20.540;2023-03-13T06:39:52;3.60;62.13
67586;SHT31;55785;47.946;20.540;2023-03-13T06:42:18;3.60;61.84
67586;SHT31;55785;47.946;20.540;2023-03-13T06:44:43;3.63;62.03
67586;SHT31;55785;47.946;20.540;2023-03-13T06:47:08;3.66;61.30
67586;SHT31;55785;47.946;20.540;2023-03-13T06:49:34;3.69;61.36
67586;SHT31;55785;47.946;20.540;2023-03-13T06:52:00;3.63;62.84
67586;SHT31;55785;47.946;20.540;2023-03-13T06:54:25;3.66;62.28
67586;SHT31;55785;47.946;20.540;2023-03-13T06:56:50;3.81;62.14
67586;SHT31;55785;47.946;20.540;2023-03-13T06:59:16;3.77;62.46
67586;SHT31;55785;47.946;20.540;2023-03-13T07:01:41;3.83;62.61
67586;SHT31;55785;47.946;20.540;2023-03-13T07:04:10;3.87;62.22
67586;SHT31;55785;47.946;20.540;2023-03-13T07:06:36;3.90;62.21
67586;SHT31;55785;47.946;20.540;2023-03-13T07:09:01;4.01;62.44
67586;SHT31;55785;47.946;20.540;2023-03-13T07:11:27;4.02;60.87
67586;SHT31;55785;47.946;20.540;2023-03-13T07:13:56;4.04;61.55
67586;SHT31;55785;47.946;20.540;2023-03-13T07:16:21;4.02;61.31
67586;SHT31;55785;47.946;20.540;2023-03-13T07:18:46;4.08;62.50
67586;SHT31;55785;47.946;20.540;2023-03-13T07:21:12;4.17;62.61
67586;SHT31;55785;47.946;20.540;2023-03-13T07:23:38;4.15;63.05
67586;SHT31;55785;47.946;20.540;2023-03-13T07:26:07;4.19;63.03
67586;SHT31;55785;47.946;20.540;2023-03-13T07:28:33;4.15;63.71
67586;SHT31;55785;47.946;20.540;2023-03-13T07:33:33;4.02;62.63
67586;SHT31;55785;47.946;20.540;2023-03-13T07:35:58;4.01;63.38
67586;SHT31;55785;47.946;20.540;2023-03-13T07:38:24;4.05;61.62
67586;SHT31;55785;47.946;20.540;2023-03-13T07:40:51;4.14;63.05
67586;SHT31;55785;47.946;20.540;2023-03-13T07:43:17;4.12;62.06
67586;SHT31;55785;47.946;20.540;2023-03-13T07:45:53;4.24;62.34
67586;SHT31;55785;47.946;20.540;2023-03-13T07:48:20;4.34;62.45
67586;SHT31;55785;47.946;20.540;2023-03-13T07:50:45;4.48;61.88
67586;SHT31;55785;47.946;20.540;2023-03-13T07:53:11;4.49;61.40
67586;SHT31;55785;47.946;20.540;2023-03-13T07:55:36;4.60;61.97
67586;SHT31;55785;47.946;20.540;2023-03-13T07:58:01;4.59;60.83
67586;SHT31;55785;47.946;20.540;2023-03-13T08:00:27;4.66;61.49
67586;SHT31;55785;47.946;20.540;2023-03-13T08:02:52;4.73;61.92
67586;SHT31;55785;47.946;20.540;2023-03-13T08:05:17;4.70;62.21
67586;SHT31;55785;47.946;20.540;2023-03-13T08:07:43;4.84;61.70
67586;SHT31;55785;47.946;20.540;2023-03-13T08:10:09;5.04;61.10
67586;SHT31;55785;47.946;20.540;2023-03-13T08:12:35;5.08;59.14
67586;SHT31;55785;47.946;20.540;2023-03-13T08:15:00;5.24;59.60
67586;SHT31;55785;47.946;20.540;2023-03-13T08:17:31;5.36;59.19
67586;SHT31;55785;47.946;20.540;2023-03-13T08:19:56;5.35;58.72
67586;SHT31;55785;47.946;20.540;2023-03-13T08:22:21;5.49;58.60
67586;SHT31;55785;47.946;20.540;2023-03-13T08:24:47;5.45;58.81
67586;SHT31;55785;47.946;20.540;2023-03-13T08:27:12;5.39;58.95
67586;SHT31;55785;47.946;20.540;2023-03-13T08:29:38;5.48;58.78
67586;SHT31;55785;47.946;20.540;2023-03-13T08:32:03;5.53;59.00
67586;SHT31;55785;47.946;20.540;2023-03-13T08:34:29;5.56;57.93
67586;SHT31;55785;47.946;20.540;2023-03-13T08:36:54;5.76;58.45
67586;SHT31;55785;47.946;20.540;2023-03-13T08:39:20;5.97;57.35
67586;SHT31;55785;47.946;20.540;2023-03-13T08:41:45;6.28;58.88
67586;SHT31;55785;47.946;20.540;2023-03-13T08:44:13;6.28;55.38
67586;SHT31;55785;47.946;20.540;2023-03-13T08:46:39;6.37;54.43
67586;SHT31;55785;47.946;20.540;2023-03-13T08:49:07;6.37;54.61
67586;SHT31;55785;47.946;20.540;2023-03-13T08:51:33;6.44;54.86
67586;SHT31;55785;47.946;20.540;2023-03-13T08:54:00;6.46;54.03
67586;SHT31;55785;47.946;20.540;2023-03-13T08:56:27;6.52;53.76
67586;SHT31;55785;47.946;20.540;2023-03-13T08:58:54;6.67;54.39
67586;SHT31;55785;47.946;20.540;2023-03-13T09:01:21;6.93;55.39
67586;SHT31;55785;47.946;20.540;2023-03-13T09:03:48;7.13;53.81
67586;SHT31;55785;47.946;20.540;2023-03-13T09:06:13;7.19;53.41
67586;SHT31;55785;47.946;20.540;2023-03-13T09:08:39;7.19;52.42
67586;SHT31;55785;47.946;20.540;2023-03-13T09:11:11;7.16;52.59
67586;SHT31;55785;47.946;20.540;2023-03-13T09:13:40;7.31;54.57
67586;SHT31;55785;47.946;20.540;2023-03-13T09:16:11;7.47;53.92
67586;SHT31;55785;47.946;20.540;2023-03-13T09:18:38;7.65;53.24
67586;SHT31;55785;47.946;20.540;2023-03-13T09:21:10;7.74;52.96
67586;SHT31;55785;47.946;20.540;2023-03-13T09:23:36;8.22;53.42
67586;SHT31;55785;47.946;20.540;2023-03-13T09:26:02;8.13;52.00
67586;SHT31;55785;47.946;20.540;2023-03-13T09:28:28;8.09;52.20
67586;SHT31;55785;47.946;20.540;2023-03-13T09:30:53;8.12;51.82
67586;SHT31;55785;47.946;20.540;2023-03-13T09:33:19;8.26;50.90
67586;SHT31;55785;47.946;20.540;2023-03-13T09:35:45;8.38;52.23
67586;SHT31;55785;47.946;20.540;2023-03-13T09:38:11;8.13;51.07
67586;SHT31;55785;47.946;20.540;2023-03-13T09:40:40;8.33;52.51
67586;SHT31;55785;47.946;20.540;2023-03-13T09:43:28;8.22;50.65
67586;SHT31;55785;47.946;20.540;2023-03-13T09:46:00;8.03;52.00
67586;SHT31;55785;47.946;20.540;2023-03-13T09:48:37;8.02;50.66
67586;SHT31;55785;47.946;20.540;2023-03-13T09:51:09;8.34;51.14
67586;SHT31;55785;47.946;20.540;2023-03-13T09:53:41;8.26;49.80
67586;SHT31;55785;47.946;20.540;2023-03-13T09:56:24;8.40;52.25
67586;SHT31;55785;47.946;20.540;2023-03-13T09:58:57;8.44;50.27
67586;SHT31;55785;47.946;20.540;2023-03-13T10:01:28;8.54;49.41
67586;SHT31;55785;47.946;20.540;2023-03-13T10:04:07;8.67;48.46
67586;SHT31;55785;47.946;20.540;2023-03-13T10:06:40;8.96;49.57
67586;SHT31;55785;47.946;20.540;2023-03-13T10:09:16;9.26;50.80
67586;SHT31;55785;47.946;20.540;2023-03-13T10:11:53;9.48;48.60
67586;SHT31;55785;47.946;20.540;2023-03-13T10:17:00;9.80;48.59
67586;SHT31;55785;47.946;20.540;2023-03-13T10:19:35;9.80;48.10
67586;SHT31;55785;47.946;20.540;2023-03-13T10:22:03;9.51;49.00
67586;SHT31;55785;47.946;20.540;2023-03-13T10:24:38;9.64;47.89
67586;SHT31;55785;47.946;20.540;2023-03-13T10:27:13;9.84;50.19
67586;SHT31;55785;47.946;20.540;2023-03-13T10:29:40;9.91;46.29
67586;SHT31;55785;47.946;20.540;2023-03-13T10:32:07;10.05;46.01
67586;SHT31;55785;47.946;20.540;2023-03-13T10:34:55;10.35;47.04
67586;SHT31;55785;47.946;20.540;2023-03-13T10:37:24;9.90;46.16
67586;SHT31;55785;47.946;20.540;2023-03-13T10:39:49;9.87;46.26
67586;SHT31;55785;47.946;20.540;2023-03-13T10:42:27;10.03;47.32
67586;SHT31;55785;47.946;20.540;2023-03-13T10:45:04;9.92;45.58
67586;SHT31;55785;47.946;20.540;2023-03-13T10:47:34;10.43;45.57
67586;SHT31;55785;47.946;20.540;2023-03-13T10:50:01;11.04;49.10
67586;SHT31;55785;47.946;20.540;2023-03-13T10:55:03;10.67;46.41
67586;SHT31;55785;47.946;20.540;2023-03-13T10:57:34;10.64;45.15
67586;SHT31;55785;47.946;20.540;2023-03-13T11:00:22;11.21;45.85
67586;SHT31;55785;47.946;20.540;2023-03-13T11:02:46;11.45;46.90
67586;SHT31;55785;47.946;20.540;2023-03-13T11:07:50;11.51;42.42
67586;SHT31;55785;47.946;20.540;2023-03-13T11:10:19;11.94;43.86
67586;SHT31;55785;47.946;20.540;2023-03-13T11:12:47;12.06;43.01
67586;SHT31;55785;47.946;20.540;2023-03-13T11:16:34;11.61;43.62
67586;SHT31;55785;47.946;20.540;2023-03-13T11:32:26;12.59;41.66
67586;SHT31;55785;47.946;20.540;2023-03-13T11:34:57;12.76;41.82
67586;SHT31;55785;47.946;20.540;2023-03-13T11:37:25;12.61;40.56
67586;SHT31;55785;47.946;20.540;2023-03-13T11:39:54;13.44;40.40
67586;SHT31;55785;47.946;20.540;2023-03-13T11:42:52;13.20;39.39
67586;SHT31;55785;47.946;20.540;2023-03-13T11:46:02;12.72;40.10
67586;SHT31;55785;47.946;20.540;2023-03-13T11:48:41;12.89;41.13
67586;SHT31;55785;47.946;20.540;2023-03-13T11:51:19;12.82;41.05
67586;SHT31;55785;47.946;20.540;2023-03-13T11:56:42;12.82;42.20
67586;SHT31;55785;47.946;20.540;2023-03-13T11:59:41;12.58;39.46
67586;SHT31;55785;47.946;20.540;2023-03-13T12:05:01;12.95;43.08
67586;SHT31;55785;47.946;20.540;2023-03-13T12:07:39;12.49;41.58
67586;SHT31;55785;47.946;20.540;2023-03-13T12:10:15;12.46;42.07
67586;SHT31;55785;47.946;20.540;2023-03-13T12:12:47;12.49;42.52
67586;SHT31;55785;47.946;20.540;2023-03-13T12:15:21;12.45;41.81
67586;SHT31;55785;47.946;20.540;2023-03-13T12:20:33;12.51;40.59
67586;SHT31;55785;47.946;20.540;2023-03-13T12:25:52;12.66;43.04
67586;SHT31;55785;47.946;20.540;2023-03-13T12:31:20;12.33;41.25
67586;SHT31;55785;47.946;20.540;2023-03-13T12:36:41;12.75;40.92
67586;SHT31;55785;47.946;20.540;2023-03-13T12:39:41;12.89;40.44
67586;SHT31;55785;47.946;20.540;2023-03-13T12:45:01;12.88;42.19
67586;SHT31;55785;47.946;20.540;2023-03-13T12:47:34;12.93;41.48
67586;SHT31;55785;47.946;20.540;2023-03-13T13:00:38;12.71;42.07
67586;SHT31;55785;47.946;20.540;2023-03-13T13:05:38;12.81;41.10
67586;SHT31;55785;47.946;20.540;2023-03-13T13:08:04;12.37;41.71
67586;SHT31;55785;47.946;20.540;2023-03-13T13:10:29;12.33;42.65
67586;SHT31;55785;47.946;20.540;2023-03-13T13:16:00;12.03;40.85
67586;SHT31;55785;47.946;20.540;2023-03-13T13:18:28;12.35;42.12
67586;SHT31;55785;47.946;20.540;2023-03-13T13:21:17;12.28;42.13
67586;SHT31;55785;47.946;20.540;2023-03-13T13:23:43;12.71;43.15
67586;SHT31;55785;47.946;20.540;2023-03-13T13:28:49;13.16;43.18
67586;SHT31;55785;47.946;20.540;2023-03-13T13:39:51;12.27;41.84
67586;SHT31;55785;47.946;20.540;2023-03-13T13:47:23;12.21;43.65
67586;SHT31;55785;47.946;20.540;2023-03-13T13:49:52;12.17;42.72
67586;SHT31;55785;47.946;20.540;2023-03-13T13:52:29;12.21;44.23
67586;SHT31;55785;47.946;20.540;2023-03-13T13:54:56;12.21;43.39
67586;SHT31;55785;47.946;20.540;2023-03-13T13:57:25;12.44;42.23
67586;SHT31;55785;47.946;20.540;2023-03-13T14:00:04;12.41;42.61
67586;SHT31;55785;47.946;20.540;2023-03-13T14:02:51;12.76;42.68
67586;SHT31;55785;47.946;20.540;2023-03-13T14:05:26;12.82;41.52
67586;SHT31;55785;47.946;20.540;2023-03-13T14:08:23;13.19;42.56
67586;SHT31;55785;47.946;20.540;2023-03-13T14:13:38;13.06;41.77
67586;SHT31;55785;47.946;20.540;2023-03-13T14:16:19;12.97;41.31
67586;SHT31;55785;47.946;20.540;2023-03-13T14:18:46;12.92;41.34
67586;SHT31;55785;47.946;20.540;2023-03-13T14:21:12;12.83;41.95
67586;SHT31;55785;47.946;20.540;2023-03-13T14:23:43;12.95;42.87
67586;SHT31;55785;47.946;20.540;2023-03-13T14:28:44;12.92;42.07
67586;SHT31;55785;47.946;20.540;2023-03-13T14:31:09;12.89;42.33
67586;SHT31;55785;47.946;20.540;2023-03-13T14:33:44;12.83;42.73
67586;SHT31;55785;47.946;20.540;2023-03-13T14:36:10;12.38;42.72
67586;SHT31;55785;47.946;20.540;2023-03-13T14:38:35;12.51;43.58
67586;SHT31;55785;47.946;20.540;2023-03-13T14:41:00;12.82;43.44
67586;SHT31;55785;47.946;20.540;2023-03-13T14:43:35;12.86;42.41
67586;SHT31;55785;47.946;20.540;2023-03-13T14:46:30;13.19;42.47
67586;SHT31;55785;47.946;20.540;2023-03-13T14:49:03;13.00;42.21
67586;SHT31;55785;47.946;20.540;2023-03-13T14:51:29;12.88;42.29
67586;SHT31;55785;47.946;20.540;2023-03-13T14:54:01;13.19;42.92
67586;SHT31;55785;47.946;20.540;2023-03-13T14:59:15;13.12;41.96
67586;SHT31;55785;47.946;20.540;2023-03-13T15:01:41;12.89;42.58
67586;SHT31;55785;47.946;20.540;2023-03-13T15:04:07;12.86;42.73
67586;SHT31;55785;47.946;20.540;2023-03-13T15:06:32;12.81;42.56
67586;SHT31;55785;47.946;20.540;2023-03-13T15:09:14;12.91;43.06
67586;SHT31;55785;47.946;20.540;2023-03-13T15:11:53;12.73;42.54
67586;SHT31;55785;47.946;20.540;2023-03-13T15:14:39;12.69;43.27
67586;SHT31;55785;47.946;20.540;2023-03-13T15:17:13;12.37;43.54
67586;SHT31;55785;47.946;20.540;2023-03-13T15:19:39;12.64;45.24
67586;SHT31;55785;47.946;20.540;2023-03-13T15:22:04;12.65;45.18
67586;SHT31;55785;47.946;20.540;2023-03-13T15:24:29;12.54;43.47
67586;SHT31;55785;47.946;20.540;2023-03-13T15:26:55;12.41;44.45
67586;SHT31;55785;47.946;20.540;2023-03-13T15:29:20;12.20;43.45
67586;SHT31;55785;47.946;20.540;2023-03-13T15:31:45;12.23;45.11
67586;SHT31;55785;47.946;20.540;2023-03-13T15:34:12;12.25;45.06
67586;SHT31;55785;47.946;20.540;2023-03-13T15:36:38;12.23;44.31
67586;SHT31;55785;47.946;20.540;2023-03-13T15:39:08;12.16;45.51
67586;SHT31;55785;47.946;20.540;2023-03-13T15:41:34;12.06;45.19
67586;SHT31;55785;47.946;20.540;2023-03-13T15:43:59;12.00;45.89
67586;SHT31;55785;47.946;20.540;2023-03-13T15:46:25;11.98;45.93
67586;SHT31;55785;47.946;20.540;2023-03-13T15:48:51;11.89;45.67
67586;SHT31;55785;47.946;20.540;2023-03-13T15:51:16;11.82;45.34
67586;SHT31;55785;47.946;20.540;2023-03-13T15:53:42;11.82;45.64
67586;SHT31;55785;47.946;20.540;2023-03-13T15:56:16;11.76;45.86
67586;SHT31;55785;47.946;20.540;2023-03-13T15:58:43;11.72;45.65
67586;SHT31;55785;47.946;20.540;2023-03-13T16:01:10;11.65;46.41
67586;SHT31;55785;47.946;20.540;2023-03-13T16:03:35;11.54;47.01
67586;SHT31;55785;47.946;20.540;2023-03-13T16:06:01;11.45;46.74
67586;SHT31;55785;47.946;20.540;2023-03-13T16:08:27;11.42;47.88
67586;SHT31;55785;47.946;20.540;2023-03-13T16:10:53;11.39;47.78
67586;SHT31;55785;47.946;20.540;2023-03-13T16:13:19;11.29;48.41
67586;SHT31;55785;47.946;20.540;2023-03-13T16:15:45;11.27;48.35
67586;SHT31;55785;47.946;20.540;2023-03-13T16:18:22;11.17;48.64
67586;SHT31;55785;47.946;20.540;2023-03-13T16:20:49;11.11;48.92
67586;SHT31;55785;47.946;20.540;2023-03-13T16:23:15;11.00;50.03
67586;SHT31;55785;47.946;20.540;2023-03-13T16:25:40;10.90;49.96
67586;SHT31;55785;47.946;20.540;2023-03-13T16:28:06;10.85;50.14
67586;SHT31;55785;47.946;20.540;2023-03-13T16:30:32;10.77;51.07
67586;SHT31;55785;47.946;20.540;2023-03-13T16:32:58;10.73;50.33
67586;SHT31;55785;47.946;20.540;2023-03-13T16:35:26;10.77;50.86
67586;SHT31;55785;47.946;20.540;2023-03-13T16:37:55;10.85;50.88
67586;SHT31;55785;47.946;20.540;2023-03-13T16:40:32;10.70;50.97
67586;SHT31;55785;47.946;20.540;2023-03-13T16:42:58;10.73;51.05
67586;SHT31;55785;47.946;20.540;2023-03-13T16:45:24;10.71;50.95
67586;SHT31;55785;47.946;20.540;2023-03-13T16:47:50;10.67;51.17
67586;SHT31;55785;47.946;20.540;2023-03-13T16:50:32;10.67;52.36
67586;SHT31;55785;47.946;20.540;2023-03-13T16:52:58;10.70;51.32
67586;SHT31;55785;47.946;20.540;2023-03-13T16:55:24;10.59;52.28
67586;SHT31;55785;47.946;20.540;2023-03-13T16:57:50;10.56;52.89
67586;SHT31;55785;47.946;20.540;2023-03-13T17:00:19;10.45;51.65
67586;SHT31;55785;47.946;20.540;2023-03-13T17:02:44;10.36;51.24